Time;durP1;ratioP1;P1;durP2;ratioP2;P2;SDS_P1;SDS_P2;PMS_P1;PMS_P2;Temp;Humidity;BMP_temperature;BMP_pressure;BME280_temperature;BME280_humidity;BME280_pressure;Samples;Min_cycle;Max_cycle;Signal;HPM_P1;HPM_P2
2022/10/14 03:35:06;;;;;;;;;;;;;;;17.91;76.40;97061.44;4247299;27;10219;-77
2022/10/14 03:37:09;;;;;;;;;;;;;;;18.19;76.02;97058.03;4238606;27;5627;-77
2022/10/14 03:39:12;;;;;;;;;;;;;;;18.42;75.35;97051.81;4242924;27;5654;-76
2022/10/14 03:41:15;;;;;;;;;;;;;;;18.58;75.09;97049.22;4247617;27;5650;-77
2022/10/14 03:43:18;;;;;;;;;;;;;;;18.73;74.60;97043.38;4245586;27;5814;-77
2022/10/14 03:45:24;;;;;;;;;;;;;;;18.85;74.24;97046.03;4241445;27;5653;-77
2022/10/14 03:47:27;;;;;;;;;;;;;;;18.90;73.96;97036.19;4246191;27;5642;-78
2022/10/14 03:49:30;;;;;;;;;;;;;;;19.00;73.95;97037.44;4245676;27;5710;-78
2022/10/14 03:51:34;;;;;;;;;;;;;;;19.06;73.85;97034.63;4247587;27;5646;-77
2022/10/14 03:53:37;;;;;;;;;;;;;;;19.12;73.82;97041.69;4242471;27;5666;-77
2022/10/14 03:55:40;;;;;;;;;;;;;;;19.16;73.40;97037.47;4252733;27;5838;-77
2022/10/14 03:57:43;;;;;;;;;;;;;;;19.19;73.38;97042.34;4244707;27;6348;-79
2022/10/14 03:59:46;;;;;;;;;;;;;;;19.20;72.99;97027.91;4247940;27;5197;-79
2022/10/14 04:01:49;;;;;;;;;;;;;;;19.25;73.09;97029.03;4247437;27;6315;-78
2022/10/14 04:03:52;;;;;;;;;;;;;;;19.25;73.24;97023.66;4247417;27;5650;-78
2022/10/14 04:05:54;;;;;;;;;;;;;;;19.28;72.88;97031.25;4248367;27;5712;-77
2022/10/14 04:07:59;;;;;;;;;;;;;;;19.27;72.95;97026.94;4248154;27;5650;-80
2022/10/14 04:10:02;;;;;;;;;;;;;;;19.28;72.89;97025.88;4247660;27;5657;-77
2022/10/14 04:12:20;;;;;;;;;;;;;;;19.29;72.51;97016.78;4247340;27;5868;-77
2022/10/14 04:14:23;;;;;;;;;;;;;;;19.30;72.68;97016.53;4247690;27;5736;-77
2022/10/14 04:16:27;;;;;;;;;;;;;;;19.30;72.38;97018.41;4247935;27;5649;-77
2022/10/14 04:18:29;;;;;;;;;;;;;;;19.31;72.50;97020.03;4239457;27;6486;-77
2022/10/14 04:20:33;;;;;;;;;;;;;;;19.32;72.07;97013.63;4247793;27;5649;-77
2022/10/14 04:22:36;;;;;;;;;;;;;;;19.33;72.27;97013.38;4247315;27;5642;-76
2022/10/14 04:24:40;;;;;;;;;;;;;;;19.35;72.01;97008.56;4246957;27;5662;-76
2022/10/14 04:26:43;;;;;;;;;;;;;;;19.34;72.06;97009.63;4247380;27;5634;-76
2022/10/14 04:28:47;;;;;;;;;;;;;;;19.34;71.88;97020.34;4248204;27;5646;-77
2022/10/14 04:30:53;;;;;;;;;;;;;;;19.34;71.93;97023.03;4247703;27;6379;-77
2022/10/14 04:32:56;;;;;;;;;;;;;;;19.36;71.88;97020.09;4247680;27;5764;-78
2022/10/14 04:34:58;;;;;;;;;;;;;;;19.34;71.69;97016.84;4241432;27;5650;-78
2022/10/14 04:37:01;;;;;;;;;;;;;;;19.34;71.68;97024.91;4235265;28;5702;-78
2022/10/14 04:39:04;;;;;;;;;;;;;;;19.34;71.58;97025.72;4236299;27;5653;-78
2022/10/14 04:41:08;;;;;;;;;;;;;;;19.35;71.62;97018.47;4235931;28;5666;-77
2022/10/14 04:43:11;;;;;;;;;;;;;;;19.34;71.42;97025.72;4235576;28;5693;-79
2022/10/14 04:45:14;;;;;;;;;;;;;;;19.35;71.40;97034.56;4236343;28;6462;-77
2022/10/14 04:47:17;;;;;;;;;;;;;;;19.33;71.42;97034.00;4235873;28;5741;-77
2022/10/14 04:49:20;;;;;;;;;;;;;;;19.31;71.35;97033.44;4236091;28;5872;-78
2022/10/14 04:51:23;;;;;;;;;;;;;;;19.31;71.41;97031.56;4235082;27;5646;-78
2022/10/14 04:53:26;;;;;;;;;;;;;;;19.30;71.19;97031.81;4235570;28;5645;-79
2022/10/14 04:55:28;;;;;;;;;;;;;;;19.28;71.28;97028.56;4235417;28;6400;-79
2022/10/14 04:57:33;;;;;;;;;;;;;;;19.25;71.31;97027.16;4235272;28;5663;-78
2022/10/14 04:59:35;;;;;;;;;;;;;;;19.24;71.15;97022.03;4233217;28;5827;-78
2022/10/14 05:01:38;;;;;;;;;;;;;;;19.23;70.99;97028.47;4235379;28;5686;-78
2022/10/14 05:03:41;;;;;;;;;;;;;;;19.19;70.96;97018.22;4227413;27;5889;-78
2022/10/14 05:05:44;;;;;;;;;;;;;;;19.18;70.99;97013.94;4235380;28;6350;-78
2022/10/14 05:07:47;;;;;;;;;;;;;;;19.18;70.79;97011.25;4235680;28;5758;-78
2022/10/14 05:09:50;;;;;;;;;;;;;;;19.18;70.85;97007.75;4235265;28;5658;-78
2022/10/14 05:11:58;;;;;;;;;;;;;;;19.12;70.69;97019.44;4235616;28;5657;-78
2022/10/14 05:14:02;;;;;;;;;;;;;;;19.06;70.97;97013.19;4228400;28;6407;-78
2022/10/14 05:16:06;;;;;;;;;;;;;;;19.06;70.60;97015.88;4235702;28;5662;-78
2022/10/14 05:18:11;;;;;;;;;;;;;;;19.04;70.94;96996.53;4233115;28;5703;-79
2022/10/14 05:20:13;;;;;;;;;;;;;;;19.04;70.61;97001.09;4234863;28;5756;-79
2022/10/14 05:22:16;;;;;;;;;;;;;;;19.05;70.68;97003.53;4235008;28;5740;-78
2022/10/14 05:24:19;;;;;;;;;;;;;;;19.09;70.54;97007.34;4235126;28;5108;-76
2022/10/14 05:26:22;;;;;;;;;;;;;;;19.10;70.29;97000.91;4235457;28;5762;-78
2022/10/14 05:28:25;;;;;;;;;;;;;;;19.13;70.40;96991.56;4235360;28;5689;-77
2022/10/14 05:30:29;;;;;;;;;;;;;;;19.12;70.52;96990.78;4235522;28;5646;-77
2022/10/14 05:32:37;;;;;;;;;;;;;;;19.14;70.19;96999.41;4235471;28;5669;-78
2022/10/14 05:34:40;;;;;;;;;;;;;;;19.13;70.27;97000.44;4235296;28;5661;-77
2022/10/14 05:36:43;;;;;;;;;;;;;;;19.15;70.24;96997.53;4235277;28;5654;-77
2022/10/14 05:38:46;;;;;;;;;;;;;;;19.16;70.38;96996.47;4228899;28;5774;-78
2022/10/14 05:40:52;;;;;;;;;;;;;;;19.15;70.28;96995.66;4234413;28;6137;-78
2022/10/14 05:42:55;;;;;;;;;;;;;;;19.17;69.99;96984.69;4235006;28;5657;-78
2022/10/14 05:44:58;;;;;;;;;;;;;;;19.18;70.09;96995.16;4234892;28;5654;-78
2022/10/14 05:47:02;;;;;;;;;;;;;;;19.19;70.18;96996.78;4233966;28;5839;-78
2022/10/14 05:49:06;;;;;;;;;;;;;;;19.20;70.11;96984.19;4235051;28;5654;-78
2022/10/14 05:51:09;;;;;;;;;;;;;;;19.20;70.16;96990.38;4234764;28;5825;-79
2022/10/14 05:53:12;;;;;;;;;;;;;;;19.21;69.95;96988.50;4234627;28;5657;-78
2022/10/14 05:55:15;;;;;;;;;;;;;;;19.21;69.86;96985.81;4232573;28;5659;-78
2022/10/14 05:57:18;;;;;;;;;;;;;;;19.23;69.99;96982.91;4234873;28;5725;-79
2022/10/14 05:59:21;;;;;;;;;;;;;;;19.25;70.05;96980.78;4234675;28;5646;-78
2022/10/14 06:01:24;;;;;;;;;;;;;;;19.26;69.67;96980.56;4232946;28;5849;-77
2022/10/14 06:03:28;;;;;;;;;;;;;;;19.27;69.69;96979.50;4234211;28;5646;-78
2022/10/14 06:05:36;;;;;;;;;;;;;;;19.29;69.95;96981.94;4233412;28;5642;-78
2022/10/14 06:07:39;;;;;;;;;;;;;;;19.30;69.57;96988.91;4233905;28;5647;-78
2022/10/14 06:09:42;;;;;;;;;;;;;;;19.28;69.75;96986.50;4234154;28;5838;-77
2022/10/14 06:11:46;;;;;;;;;;;;;;;19.28;69.79;96991.03;4234425;28;5679;-78
2022/10/14 06:13:49;;;;;;;;;;;;;;;19.28;69.85;96991.03;4232887;28;6351;-78
2022/10/14 06:15:52;;;;;;;;;;;;;;;19.28;69.59;96991.03;4234592;28;5642;-78
2022/10/14 06:17:55;;;;;;;;;;;;;;;19.29;69.88;96990.78;4234320;28;5654;-78
2022/10/14 06:19:59;;;;;;;;;;;;;;;19.29;69.38;96993.47;4234659;28;5736;-78
2022/10/14 06:22:02;;;;;;;;;;;;;;;19.32;69.90;97005.56;4226309;28;5681;-78
2022/10/14 06:24:06;;;;;;;;;;;;;;;19.31;69.37;97001.25;4234221;28;6453;-78
2022/10/14 06:26:10;;;;;;;;;;;;;;;19.31;69.38;96996.72;4234149;28;5713;-78
2022/10/14 06:28:13;;;;;;;;;;;;;;;19.31;69.64;97006.63;4234406;27;5698;-78
2022/10/14 06:30:16;;;;;;;;;;;;;;;19.32;69.49;96997.53;4234419;28;5646;-78
2022/10/14 06:32:20;;;;;;;;;;;;;;;19.32;69.55;97002.88;4235402;28;5872;-78
2022/10/14 06:34:23;;;;;;;;;;;;;;;19.32;69.39;97003.69;4237235;28;5638;-77
2022/10/14 06:36:28;;;;;;;;;;;;;;;19.34;69.61;97000.78;4235518;28;5470;-78
2022/10/14 06:38:30;;;;;;;;;;;;;;;19.35;69.31;97008.56;4236558;27;5749;-78
2022/10/14 06:40:33;;;;;;;;;;;;;;;19.35;69.58;97007.75;4232455;27;5673;-78
2022/10/14 06:42:37;;;;;;;;;;;;;;;19.34;69.37;97000.78;4224619;28;5786;-77
2022/10/14 06:44:40;;;;;;;;;;;;;;;19.34;69.13;97006.13;4233432;28;5645;-78
2022/10/14 06:46:43;;;;;;;;;;;;;;;19.35;69.39;97010.44;4233719;28;5736;-77
2022/10/14 06:48:46;;;;;;;;;;;;;;;19.36;69.47;97009.38;4228217;27;5646;-77
2022/10/14 06:50:52;;;;;;;;;;;;;;;19.37;69.42;97005.66;4234685;28;5705;-78
2022/10/14 06:52:58;;;;;;;;;;;;;;;19.37;69.30;97017.19;4235480;28;5665;-78
2022/10/14 06:55:01;;;;;;;;;;;;;;;19.38;69.17;97018.00;4232407;28;5740;-77
2022/10/14 06:57:05;;;;;;;;;;;;;;;19.40;69.00;97018.56;4231103;28;5638;-77
2022/10/14 06:59:07;;;;;;;;;;;;;;;19.41;68.73;97021.00;4234482;28;5673;-77
2022/10/14 07:01:10;;;;;;;;;;;;;;;19.42;68.64;97022.63;4222162;28;5671;-77
2022/10/14 07:03:14;;;;;;;;;;;;;;;19.42;69.11;97025.31;4234755;28;5646;-76
2022/10/14 07:05:17;;;;;;;;;;;;;;;19.44;68.56;97022.38;4233738;28;5650;-71
2022/10/14 07:07:20;;;;;;;;;;;;;;;19.46;68.83;97023.75;4232942;28;5917;-71
2022/10/14 07:09:24;;;;;;;;;;;;;;;19.46;68.91;97026.44;4232965;28;5645;-71
2022/10/14 07:11:29;;;;;;;;;;;;;;;19.45;68.79;97024.00;4225741;28;5774;-71
2022/10/14 07:13:33;;;;;;;;;;;;;;;19.45;68.92;97029.38;4228167;28;5646;-70
2022/10/14 07:15:37;;;;;;;;;;;;;;;19.44;68.46;97023.19;4229689;28;5662;-72
2022/10/14 07:17:40;;;;;;;;;;;;;;;19.46;68.43;97025.63;4240462;27;5650;-71
2022/10/14 07:19:43;;;;;;;;;;;;;;;19.48;68.33;97020.84;4233757;28;5641;-71
2022/10/14 07:21:46;;;;;;;;;;;;;;;19.49;68.21;97017.13;4239549;27;5646;-71
2022/10/14 07:23:49;;;;;;;;;;;;;;;19.48;68.19;97020.84;4233405;28;5745;-71
2022/10/14 07:25:55;;;;;;;;;;;;;;;19.50;68.34;97026.78;4233372;28;5728;-71
2022/10/14 07:27:59;;;;;;;;;;;;;;;19.52;68.20;97027.34;4233777;28;5718;-72
2022/10/14 07:30:03;;;;;;;;;;;;;;;19.51;67.92;97039.13;4233755;28;5829;-71
2022/10/14 07:32:05;;;;;;;;;;;;;;;19.53;68.00;97036.19;4233789;28;5733;-71
2022/10/14 07:34:08;;;;;;;;;;;;;;;19.51;67.97;97041.81;4237635;27;5646;-71
2022/10/14 07:36:13;;;;;;;;;;;;;;;19.53;67.81;97039.69;4233531;28;5638;-69
2022/10/14 07:38:24;;;;;;;;;;;;;;;19.54;68.25;97043.19;4233655;27;7278;-72
2022/10/14 07:40:27;;;;;;;;;;;;;;;19.55;67.84;97048.34;4233455;28;5658;-71
2022/10/14 07:42:32;;;;;;;;;;;;;;;19.58;67.89;97050.53;4233515;28;5666;-71
2022/10/14 07:44:36;;;;;;;;;;;;;;;19.60;67.73;97056.47;4233491;28;5646;-71
2022/10/14 07:46:41;;;;;;;;;;;;;;;19.61;67.87;97049.25;4233347;28;5914;-71
2022/10/14 07:48:45;;;;;;;;;;;;;;;19.60;67.47;97053.81;4233505;28;5662;-71
2022/10/14 07:50:59;;;;;;;;;;;;;;;19.62;67.55;97054.34;4233467;27;5669;-71
2022/10/14 07:53:02;;;;;;;;;;;;;;;19.64;67.56;97060.28;4229657;28;5654;-71
2022/10/14 07:55:06;;;;;;;;;;;;;;;19.63;67.29;97058.66;4231763;28;5722;-70
2022/10/14 07:57:09;;;;;;;;;;;;;;;19.62;67.53;97062.41;4224464;28;6574;-71
2022/10/14 07:59:14;;;;;;;;;;;;;;;19.60;67.33;97061.84;4231788;28;5654;-71
2022/10/14 08:01:18;;;;;;;;;;;;;;;19.61;67.38;97063.47;4233196;28;5709;-70
2022/10/14 08:03:22;;;;;;;;;;;;;;;19.59;67.43;97056.69;4231731;28;5669;-70
2022/10/14 08:05:25;;;;;;;;;;;;;;;19.58;67.34;97065.81;4231255;28;5665;-71
2022/10/14 08:07:39;;;;;;;;;;;;;;;19.56;67.46;97066.03;4233569;28;5836;-70
2022/10/14 08:09:42;;;;;;;;;;;;;;;19.56;67.42;97068.72;4232434;28;5732;-70
2022/10/14 08:11:45;;;;;;;;;;;;;;;19.56;67.40;97060.69;4234119;27;5650;-72
2022/10/14 08:13:49;;;;;;;;;;;;;;;19.57;67.33;97059.63;4236376;28;5658;-71
2022/10/14 08:15:53;;;;;;;;;;;;;;;19.55;67.01;97059.06;4236291;28;5856;-72
2022/10/14 08:17:56;;;;;;;;;;;;;;;19.55;67.18;97055.53;4236591;28;5654;-71
2022/10/14 08:19:59;;;;;;;;;;;;;;;19.53;67.21;97058.47;4232803;27;5675;-72
2022/10/14 08:22:02;;;;;;;;;;;;;;;19.53;67.29;97063.03;4228221;28;5657;-71
2022/10/14 08:24:06;;;;;;;;;;;;;;;19.55;67.36;97067.09;4236007;28;5678;-71
2022/10/14 08:26:19;;;;;;;;;;;;;;;19.54;66.74;97070.00;4236313;28;5662;-73
2022/10/14 08:28:22;;;;;;;;;;;;;;;19.54;66.82;97070.81;4236204;28;5630;-71
2022/10/14 08:30:25;;;;;;;;;;;;;;;19.53;66.91;97071.06;4236036;28;5832;-71
2022/10/14 08:32:29;;;;;;;;;;;;;;;19.52;66.98;97070.25;4236374;28;5707;-71
2022/10/14 08:34:32;;;;;;;;;;;;;;;19.54;67.07;97078.06;4236010;28;5745;-71
2022/10/14 08:36:35;;;;;;;;;;;;;;;19.53;66.58;97079.91;4236731;27;5717;-71
2022/10/14 08:38:38;;;;;;;;;;;;;;;19.53;66.79;97069.19;4239228;27;5732;-71
2022/10/14 08:40:52;;;;;;;;;;;;;;;19.52;66.58;97085.53;4236048;28;5760;-72
2022/10/14 08:43:04;;;;;;;;;;;;;;;19.51;66.60;97087.41;4235982;28;6463;-70
2022/10/14 08:45:11;;;;;;;;;;;;;;;19.52;66.90;97080.97;4228539;28;5641;-71
2022/10/14 08:47:17;;;;;;;;;;;;;;;19.52;66.47;97089.03;4235842;28;6316;-71
2022/10/14 08:49:27;;;;;;;;;;;;;;;19.52;66.22;97080.97;4235904;28;5092;-71
2022/10/14 08:51:32;;;;;;;;;;;;;;;19.56;66.34;97094.72;4235999;28;5657;-71
2022/10/14 08:53:38;;;;;;;;;;;;;;;19.56;66.32;97084.81;4235542;27;5642;-71
2022/10/14 08:55:46;;;;;;;;;;;;;;;19.56;66.30;97095.53;4235734;28;5678;-71
2022/10/14 08:57:54;;;;;;;;;;;;;;;19.56;66.29;97098.22;4236011;28;5626;-71
2022/10/14 08:59:57;;;;;;;;;;;;;;;19.56;66.04;97108.13;4234365;27;5654;-72
2022/10/14 09:02:10;;;;;;;;;;;;;;;19.54;66.17;97092.28;4235637;27;5654;-72
2022/10/14 09:04:15;;;;;;;;;;;;;;;19.55;65.99;97093.06;4228908;28;5775;-71
2022/10/14 09:06:25;;;;;;;;;;;;;;;19.58;66.10;97090.75;4235695;28;5666;-72
2022/10/14 09:08:33;;;;;;;;;;;;;;;19.59;66.01;97089.69;4235542;28;5654;-70
2022/10/14 09:10:39;;;;;;;;;;;;;;;19.61;66.17;97092.97;4235399;28;6978;-70
2022/10/14 09:12:43;;;;;;;;;;;;;;;19.61;65.95;97087.59;4235582;28;5642;-70
2022/10/14 09:14:47;;;;;;;;;;;;;;;19.60;66.00;97083.28;4235627;28;5650;-71
2022/10/14 09:16:56;;;;;;;;;;;;;;;19.58;66.31;97071.97;4235053;27;5774;-70
2022/10/14 09:19:01;;;;;;;;;;;;;;;19.59;66.15;97070.91;4234841;27;5654;-71
2022/10/14 09:21:29;;;;;;;;;;;;;;;19.63;66.31;97073.94;4229271;27;5752;-70
2022/10/14 09:23:58;;;;;;;;;;;;;;;19.63;65.87;97064.03;4232190;28;5670;-70
2022/10/14 09:26:07;;;;;;;;;;;;;;;19.66;65.85;97068.91;4220283;28;5777;-71
2022/10/14 09:28:10;;;;;;;;;;;;;;;19.68;65.78;97069.47;4231801;28;5752;-71
2022/10/14 09:30:15;;;;;;;;;;;;;;;19.69;65.78;97056.84;4234478;28;5721;-72
2022/10/14 09:32:26;;;;;;;;;;;;;;;19.69;65.78;97063.03;4233425;28;5812;-71
2022/10/14 09:34:33;;;;;;;;;;;;;;;19.72;65.87;97059.88;4219258;28;5646;-71
2022/10/14 09:36:36;;;;;;;;;;;;;;;19.74;65.71;97065.81;4230498;28;5748;-72
2022/10/14 09:38:41;;;;;;;;;;;;;;;19.76;65.61;97062.88;4235134;28;5744;-72
2022/10/14 09:40:49;;;;;;;;;;;;;;;19.77;65.53;97059.13;4234301;28;5848;-72
2022/10/14 09:42:57;;;;;;;;;;;;;;;19.76;65.59;97057.53;4234980;28;5638;-72
2022/10/14 09:45:05;;;;;;;;;;;;;;;19.75;65.83;97061.25;4235226;28;5669;-71
2022/10/14 09:47:17;;;;;;;;;;;;;;;19.76;65.96;97061.00;4227707;28;5736;-69
2022/10/14 09:49:31;;;;;;;;;;;;;;;19.75;65.76;97061.25;4234729;28;5868;-70
2022/10/14 09:51:34;;;;;;;;;;;;;;;19.76;65.70;97061.00;4235000;27;5650;-70
2022/10/14 09:53:41;;;;;;;;;;;;;;;19.74;65.68;97063.13;4238269;27;5716;-70
2022/10/14 09:55:50;;;;;;;;;;;;;;;19.70;65.60;97064.66;4236533;27;5819;-70
2022/10/14 09:58:02;;;;;;;;;;;;;;;19.72;65.47;97067.94;4232935;28;5637;-71
2022/10/14 10:00:08;;;;;;;;;;;;;;;19.75;65.54;97067.44;4226676;28;5666;-69
2022/10/14 10:02:23;;;;;;;;;;;;;;;19.76;65.29;97063.69;4232919;28;5662;-70
2022/10/14 10:04:34;;;;;;;;;;;;;;;19.80;65.58;97069.38;4229794;28;5119;-69
2022/10/14 10:06:51;;;;;;;;;;;;;;;19.81;65.43;97065.63;4231197;28;5778;-70
2022/10/14 10:08:58;;;;;;;;;;;;;;;19.81;65.15;97057.59;4233332;28;5678;-69
2022/10/14 10:11:07;;;;;;;;;;;;;;;19.81;65.12;97054.09;4230201;28;5689;-70
2022/10/14 10:13:28;;;;;;;;;;;;;;;19.82;65.25;97056.56;4227595;27;5672;-70
2022/10/14 10:15:33;;;;;;;;;;;;;;;19.85;65.39;97052.56;4232667;28;5654;-71
2022/10/14 10:17:40;;;;;;;;;;;;;;;19.85;65.13;97055.25;4231380;28;5654;-70
2022/10/14 10:19:44;;;;;;;;;;;;;;;19.85;65.07;97056.06;4233927;28;5658;-72
2022/10/14 10:21:47;;;;;;;;;;;;;;;19.88;65.34;97060.09;4234109;28;6187;-70
2022/10/14 10:23:55;;;;;;;;;;;;;;;19.90;65.19;97049.94;4233826;28;5873;-70
2022/10/14 10:26:18;;;;;;;;;;;;;;;19.91;64.98;97049.69;4233850;28;5850;-70
2022/10/14 10:28:30;;;;;;;;;;;;;;;19.94;65.38;97045.72;4229349;28;5646;-71
2022/10/14 10:30:38;;;;;;;;;;;;;;;19.94;64.97;97045.72;4233687;28;5642;-70
2022/10/14 10:32:47;;;;;;;;;;;;;;;19.96;65.05;97035.56;4232880;28;5638;-71
2022/10/14 10:35:16;;;;;;;;;;;;;;;19.97;65.12;97032.63;4233901;28;6489;-71
2022/10/14 10:37:32;;;;;;;;;;;;;;;19.98;64.98;97031.56;4228216;28;5825;-70
2022/10/14 10:39:43;;;;;;;;;;;;;;;20.01;65.30;97030.25;4234113;28;5745;-71
2022/10/14 10:41:58;;;;;;;;;;;;;;;20.02;65.29;97023.81;4233384;28;5638;-71
2022/10/14 10:44:20;;;;;;;;;;;;;;;20.02;64.92;97032.69;4223577;28;5667;-70
2022/10/14 10:46:39;;;;;;;;;;;;;;;20.03;64.87;97025.44;4232432;28;5589;-71
2022/10/14 10:48:46;;;;;;;;;;;;;;;20.03;65.11;97022.75;4233873;28;5647;-69
2022/10/14 10:50:56;;;;;;;;;;;;;;;20.04;64.86;97021.69;4234262;27;5895;-69
2022/10/14 10:53:15;;;;;;;;;;;;;;;20.05;65.11;97028.72;4233488;28;5654;-70
2022/10/14 10:55:27;;;;;;;;;;;;;;;20.06;64.98;97031.13;4224835;28;5798;-69
2022/10/14 10:57:46;;;;;;;;;;;;;;;20.06;64.78;97025.78;4233785;28;5896;-70
2022/10/14 10:59:56;;;;;;;;;;;;;;;20.07;64.65;97023.91;4233860;28;5879;-72
2022/10/14 11:02:16;;;;;;;;;;;;;;;20.07;64.71;97029.28;4230840;28;5694;-71
2022/10/14 11:04:30;;;;;;;;;;;;;;;20.11;64.96;97027.69;4226450;28;5932;-71
2022/10/14 11:14:26;;;;;;;;;;;;;;;20.20;64.54;97026.22;4171613;28;5801;-71
2022/10/14 11:16:40;;;;;;;;;;;;;;;20.20;64.71;97020.84;4169900;28;5782;-71
2022/10/14 11:18:48;;;;;;;;;;;;;;;20.22;64.24;97024.09;4176173;28;5685;-71
2022/10/14 11:21:05;;;;;;;;;;;;;;;20.23;64.19;97019.53;4159426;28;5890;-72
2022/10/14 11:23:36;;;;;;;;;;;;;;;20.26;64.41;97010.97;4173078;28;5768;-71
2022/10/14 11:25:48;;;;;;;;;;;;;;;20.27;64.11;97018.81;4180463;28;5725;-71
2022/10/14 11:27:59;;;;;;;;;;;;;;;20.28;64.18;97007.00;4162390;28;6828;-70
2022/10/14 11:30:13;;;;;;;;;;;;;;;20.31;64.09;97006.50;4153810;28;5696;-70
2022/10/14 11:32:23;;;;;;;;;;;;;;;20.35;64.07;97006.81;4172971;28;5665;-70
2022/10/14 11:34:42;;;;;;;;;;;;;;;20.36;64.06;97006.53;4181002;28;5681;-71
2022/10/14 11:36:55;;;;;;;;;;;;;;;20.38;64.58;97000.13;4166843;28;5696;-70
2022/10/14 11:39:11;;;;;;;;;;;;;;;20.40;64.19;96979.22;4172444;28;5706;-71
2022/10/14 11:41:31;;;;;;;;;;;;;;;20.43;64.42;96981.44;4166253;28;5877;-72
2022/10/14 11:43:41;;;;;;;;;;;;;;;20.43;64.21;96982.25;4156346;28;5782;-72
2022/10/14 11:45:52;;;;;;;;;;;;;;;20.46;64.06;96991.66;4193338;28;5750;-70
2022/10/14 11:48:04;;;;;;;;;;;;;;;20.48;64.42;96984.16;4235937;28;5673;-70
2022/10/14 11:50:16;;;;;;;;;;;;;;;20.49;64.03;96983.91;4227875;28;5748;-72
2022/10/14 11:52:26;;;;;;;;;;;;;;;20.49;64.37;96981.22;4236784;28;5753;-70
2022/10/14 11:54:34;;;;;;;;;;;;;;;20.49;64.04;96978.53;4236339;28;5812;-70
2022/10/14 11:56:44;;;;;;;;;;;;;;;20.47;63.97;96977.97;4236432;28;5655;-70
2022/10/14 11:58:50;;;;;;;;;;;;;;;20.48;64.05;96976.09;4236574;28;5725;-70
2022/10/14 12:01:14;;;;;;;;;;;;;;;20.48;64.42;96968.84;4223832;28;6618;-71
2022/10/14 12:03:26;;;;;;;;;;;;;;;20.50;64.12;96973.97;4220212;28;5663;-72
2022/10/14 12:05:37;;;;;;;;;;;;;;;20.51;64.28;96976.44;4236851;28;6450;-71
2022/10/14 12:07:48;;;;;;;;;;;;;;;20.52;64.29;96977.25;4236426;28;5701;-70
2022/10/14 12:09:57;;;;;;;;;;;;;;;20.50;63.88;96971.28;4236246;28;5460;-72
2022/10/14 12:12:05;;;;;;;;;;;;;;;20.51;64.07;96967.56;4228672;28;7708;-70
2022/10/14 12:14:17;;;;;;;;;;;;;;;20.52;64.22;96963.81;4220829;28;5675;-71
2022/10/14 12:16:24;;;;;;;;;;;;;;;20.52;63.93;96966.50;4236275;28;6601;-69
2022/10/14 12:18:29;;;;;;;;;;;;;;;20.50;64.31;96957.84;4236020;28;5726;-71
2022/10/14 12:20:38;;;;;;;;;;;;;;;20.50;64.31;96952.47;4236338;27;5650;-76
2022/10/14 12:22:41;;;;;;;;;;;;;;;20.52;64.23;96958.44;4222135;28;5859;-70
2022/10/14 12:24:48;;;;;;;;;;;;;;;20.54;63.62;96953.63;4215680;28;7753;-71
2022/10/14 12:26:54;;;;;;;;;;;;;;;20.54;63.70;96950.94;4214775;28;5648;-71
2022/10/14 12:28:57;;;;;;;;;;;;;;;20.55;63.98;96952.56;4216296;28;5713;-73
2022/10/14 12:31:33;;;;;;;;;;;;;;;20.58;63.65;96952.03;4224834;27;6788;-70
2022/10/14 12:34:17;;;;;;;;;;;;;;;20.59;63.69;96945.59;4229631;28;5658;-72
2022/10/14 12:36:31;;;;;;;;;;;;;;;20.60;63.80;96945.34;4219304;28;5782;-73
2022/10/14 12:38:41;;;;;;;;;;;;;;;20.61;63.31;96951.53;4233357;28;5647;-72
2022/10/14 12:40:47;;;;;;;;;;;;;;;20.62;63.62;96950.50;4228823;27;5715;-70
2022/10/14 12:43:03;;;;;;;;;;;;;;;20.60;63.60;96948.03;4219882;27;5770;-72
2022/10/14 12:45:15;;;;;;;;;;;;;;;20.62;63.70;96954.00;4227105;27;6277;-71
2022/10/14 12:47:27;;;;;;;;;;;;;;;20.62;63.36;96945.94;4233009;28;5860;-72
2022/10/14 12:49:36;;;;;;;;;;;;;;;20.61;63.46;96947.00;4230850;28;5868;-73
2022/10/14 12:51:53;;;;;;;;;;;;;;;20.62;63.63;96945.13;4233323;27;5653;-68
2022/10/14 12:54:13;;;;;;;;;;;;;;;20.64;63.44;96940.31;4230243;27;5670;-72
2022/10/14 12:56:38;;;;;;;;;;;;;;;20.66;63.21;96940.84;4235704;28;5646;-71
2022/10/14 12:58:50;;;;;;;;;;;;;;;20.68;63.68;96940.59;4235637;28;5642;-73
2022/10/14 13:00:56;;;;;;;;;;;;;;;20.69;63.52;96942.22;4232161;27;5647;-70
2022/10/14 13:03:03;;;;;;;;;;;;;;;20.69;63.39;96943.03;4236237;28;5745;-72
2022/10/14 13:05:10;;;;;;;;;;;;;;;20.69;63.28;96943.03;4228589;28;5654;-72
2022/10/14 13:07:29;;;;;;;;;;;;;;;20.67;63.23;96939.78;4235839;27;5709;-72
2022/10/14 13:09:57;;;;;;;;;;;;;;;20.69;63.25;96940.34;4235778;28;5769;-71
2022/10/14 13:12:39;;;;;;;;;;;;;;;20.70;63.51;96944.66;4235831;28;5770;-73
2022/10/14 13:14:58;;;;;;;;;;;;;;;20.69;63.31;96940.34;4224652;28;5713;-71
2022/10/14 13:17:01;;;;;;;;;;;;;;;20.69;63.05;96937.66;4233736;27;5776;-69
2022/10/14 13:19:31;;;;;;;;;;;;;;;20.66;62.98;96938.16;4235315;28;5649;-69
2022/10/14 13:21:52;;;;;;;;;;;;;;;20.66;63.47;96938.16;4235713;28;5760;-70
2022/10/14 13:23:55;;;;;;;;;;;;;;;20.66;63.40;96935.47;4235594;28;5678;-70
2022/10/14 13:26:10;;;;;;;;;;;;;;;20.66;63.05;96940.84;4234992;28;5642;-73
2022/10/14 13:28:24;;;;;;;;;;;;;;;20.67;63.20;96939.78;4228668;28;5649;-72
2022/10/14 13:30:36;;;;;;;;;;;;;;;20.66;63.56;96932.78;4233173;28;5661;-71
2022/10/14 13:32:44;;;;;;;;;;;;;;;20.68;63.08;96930.66;4235476;27;6375;-73
2022/10/14 13:34:55;;;;;;;;;;;;;;;20.68;63.48;96935.22;4230439;28;5119;-71
2022/10/14 13:37:14;;;;;;;;;;;;;;;20.67;63.14;96928.22;4233549;28;5805;-73
2022/10/14 13:39:19;;;;;;;;;;;;;;;20.67;63.53;96931.72;4227278;28;6490;-69
2022/10/14 13:41:25;;;;;;;;;;;;;;;20.66;63.51;96927.41;4223197;28;5639;-71
2022/10/14 13:43:38;;;;;;;;;;;;;;;20.65;63.20;96917.75;4226577;28;5119;-71
2022/10/14 13:45:44;;;;;;;;;;;;;;;20.62;63.69;96921.75;4227114;27;5732;-71
2022/10/14 13:47:48;;;;;;;;;;;;;;;20.61;63.79;96920.13;4228686;28;5754;-71
2022/10/14 13:49:53;;;;;;;;;;;;;;;20.60;63.40;96918.50;4231146;27;5830;-71
2022/10/14 13:51:59;;;;;;;;;;;;;;;20.61;63.39;96930.03;4222127;27;5697;-72
2022/10/14 13:54:09;;;;;;;;;;;;;;;20.61;63.72;96924.66;4225280;27;5777;-72
2022/10/14 13:56:21;;;;;;;;;;;;;;;20.60;63.56;96918.50;4229060;28;6074;-70
2022/10/14 13:58:25;;;;;;;;;;;;;;;20.60;63.86;96928.41;4226090;27;5897;-70
2022/10/14 14:00:29;;;;;;;;;;;;;;;20.57;63.82;96916.31;4228769;28;5673;-72
2022/10/14 14:02:48;;;;;;;;;;;;;;;20.56;63.76;96916.56;4225251;28;6328;-72
2022/10/14 14:05:00;;;;;;;;;;;;;;;20.57;64.11;96923.56;4221499;27;5821;-72
2022/10/14 14:07:04;;;;;;;;;;;;;;;20.55;64.10;96926.50;4230352;28;5666;-71
2022/10/14 14:09:30;;;;;;;;;;;;;;;20.54;63.86;96922.22;4229358;28;5650;-72
2022/10/14 14:11:37;;;;;;;;;;;;;;;20.54;63.94;96924.09;4227663;28;5749;-69
2022/10/14 14:13:48;;;;;;;;;;;;;;;20.55;64.23;96931.06;4234489;28;5721;-71
2022/10/14 14:15:59;;;;;;;;;;;;;;;20.56;63.85;96928.13;4223909;28;5667;-70
2022/10/14 14:18:02;;;;;;;;;;;;;;;20.55;64.24;96920.31;4229750;27;5820;-71
2022/10/14 14:20:11;;;;;;;;;;;;;;;20.52;64.06;96921.66;4221627;27;5763;-72
2022/10/14 14:22:18;;;;;;;;;;;;;;;20.52;64.35;96918.97;4223124;27;6130;-71
2022/10/14 14:24:24;;;;;;;;;;;;;;;20.53;64.26;96920.59;4228121;27;5857;-72
2022/10/14 14:26:34;;;;;;;;;;;;;;;20.54;64.35;96907.97;4221222;28;5097;-71
2022/10/14 14:28:38;;;;;;;;;;;;;;;20.53;64.29;96911.72;4223304;27;5676;-73
2022/10/14 14:30:46;;;;;;;;;;;;;;;20.51;64.38;96908.47;4221606;28;5749;-72
2022/10/14 14:33:00;;;;;;;;;;;;;;;20.49;64.33;96915.97;4224670;28;5765;-71
2022/10/14 14:35:11;;;;;;;;;;;;;;;20.49;64.65;96919.44;4217611;28;5663;-73
2022/10/14 14:37:27;;;;;;;;;;;;;;;20.46;64.37;96916.47;4217442;28;5747;-72
2022/10/14 14:39:59;;;;;;;;;;;;;;;20.46;64.83;96916.47;4226040;28;5733;-72
2022/10/14 14:42:02;;;;;;;;;;;;;;;20.45;65.01;96920.22;4217435;28;5675;-72
2022/10/14 14:44:06;;;;;;;;;;;;;;;20.43;64.65;96919.66;4218526;28;5757;-72
2022/10/14 14:46:32;;;;;;;;;;;;;;;20.39;64.64;96922.03;4221014;27;5696;-71
2022/10/14 14:48:45;;;;;;;;;;;;;;;20.35;65.23;96927.06;4225147;28;5344;-70
2022/10/14 14:50:51;;;;;;;;;;;;;;;20.33;65.24;96921.16;4226945;28;7737;-69
2022/10/14 14:53:00;;;;;;;;;;;;;;;20.31;65.31;96925.16;4230826;28;5666;-70
2022/10/14 14:55:04;;;;;;;;;;;;;;;20.30;65.51;96924.34;4222681;28;5645;-69
2022/10/14 14:57:09;;;;;;;;;;;;;;;20.28;65.34;96925.66;4226674;28;5794;-70